CPS7 weather

Orton / Smith Field
Orton, Ontario, Canada

Public forecast

Using degrees Celsius for public forecast. Weather courtesy of forecast.io.

METAR (pilot weather report)

Closest report is Waterloo Airport, 20.0 nm (37.0 km) SSW. Retrieved 2019/05/24 00:00 UTC (17 minutes ago):

CYKF 240000Z AUTO 28015G31KT 9SM BKN065 20/09 A2987 RMK SLP116 DENSITY ALT 1900FT

TAF (pilot weather forecast)

Closest forecast is Waterloo Airport, 20.0 nm (37.0 km) SSW. Retrieved 2019/05/23 20:42 UTC (4 hours ago):

TAF CYKF 231938Z 2320/2408 26020G35KT P6SM SCT030 TEMPO 2322/2324 BKN030 BECMG 2400/2402 30012G22KT RMK FCST BASED ON AUTO OBS. NXT FCST BY 240200Z